Time;durP1;ratioP1;P1;durP2;ratioP2;P2;SDS_P1;SDS_P2;PMS_P1;PMS_P2;Temp;Humidity;BMP_temperature;BMP_pressure;BME280_temperature;BME280_humidity;BME280_pressure;Samples;Min_cycle;Max_cycle;Signal;HPM_P1;HPM_P2
2021/12/16 01:34:39;;;;;;;15.98;10.27;;;;;;;4.95;78.32;98353.22;4925352;29;20603;-82
2021/12/16 02:34:02;;;;;;;20.23;12.63;;;;;;;5.54;80.53;98342.31;5090838;27;20386;-80
2021/12/16 02:36:37;;;;;;;21.17;14.15;;;;;;;5.53;80.33;98330.28;5090704;28;20421;-80
2021/12/16 02:39:11;;;;;;;21.73;14.35;;;;;;;5.57;81.49;98334.31;5090858;28;20494;-80
2021/12/16 02:41:47;;;;;;;27.63;15.40;;;;;;;5.56;80.55;98325.72;5090699;28;20048;-80
2021/12/16 02:44:36;;;;;;;22.65;13.90;;;;;;;5.57;80.91;98324.81;5090882;28;20518;-80
2021/12/16 02:50:03;;;;;;;22.75;14.73;;;;;;;5.65;81.62;98328.59;5090942;28;20070;-80
2021/12/16 02:57:59;;;;;;;21.70;14.32;;;;;;;5.71;81.88;98323.00;4989983;28;20129;-80
2021/12/16 03:00:28;;;;;;;24.45;15.68;;;;;;;5.72;81.66;98335.00;4991350;28;20133;-79
2021/12/16 03:02:58;;;;;;;21.65;13.43;;;;;;;5.72;81.83;98325.47;4991318;28;20158;-80
2021/12/16 03:05:27;;;;;;;20.73;12.88;;;;;;;5.72;81.27;98330.63;4991320;28;20062;-80
2021/12/16 03:07:55;;;;;;;22.75;13.85;;;;;;;5.73;81.61;98327.13;4991194;28;20058;-80
2021/12/16 03:11:00;;;;;;;20.23;12.88;;;;;;;5.72;80.99;98325.47;4990963;28;20051;-80
2021/12/16 03:13:30;;;;;;;20.58;13.48;;;;;;;5.72;81.58;98328.06;4990652;28;20090;-80
2021/12/16 03:16:11;;;;;;;22.23;13.50;;;;;;;5.75;81.67;98329.59;4991089;28;20062;-80
2021/12/16 03:18:47;;;;;;;20.80;12.55;;;;;;;5.73;81.42;98329.72;4991333;28;20050;-80
2021/12/16 03:21:25;;;;;;;19.25;12.27;;;;;;;5.68;79.71;98329.19;4990934;28;20137;-79
2021/12/16 03:24:09;;;;;;;19.88;12.05;;;;;;;5.58;79.50;98341.16;4990697;28;20085;-79
2021/12/16 03:30:03;;;;;;;15.18;10.10;;;;;;;5.45;79.34;98337.78;4991112;28;20050;-80
2021/12/16 03:35:13;;;;;;;17.92;11.10;;;;;;;5.36;79.99;98324.53;4950387;29;20051;-80
2021/12/16 03:37:43;;;;;;;16.85;10.60;;;;;;;5.36;80.21;98334.06;4951929;29;20521;-80
2021/12/16 03:40:14;;;;;;;17.27;10.75;;;;;;;5.40;81.42;98334.66;4951835;29;20055;-79
2021/12/16 03:42:44;;;;;;;18.17;11.77;;;;;;;5.44;81.58;98346.47;4949062;29;20048;-80
2021/12/16 03:48:05;;;;;;;17.17;10.27;;;;;;;5.45;80.83;98350.72;4938219;29;20060;-79
2021/12/16 03:50:34;;;;;;;17.52;10.25;;;;;;;5.46;81.15;98340.22;4940670;29;20056;-80
2021/12/16 03:53:05;;;;;;;17.80;10.57;;;;;;;5.49;81.94;98344.41;4939177;29;20508;-80
2021/12/16 03:55:34;;;;;;;17.77;11.10;;;;;;;5.50;82.11;98352.03;4939239;29;20064;-80
2021/12/16 03:58:02;;;;;;;19.73;11.15;;;;;;;5.54;82.21;98353.47;4939502;29;20480;-80
2021/12/16 04:00:35;;;;;;;17.15;10.95;;;;;;;5.56;82.06;98355.97;4938896;29;20052;-80
2021/12/16 04:03:04;;;;;;;16.88;10.85;;;;;;;5.57;81.86;98353.28;4938662;29;20056;-79
2021/12/16 04:05:32;;;;;;;16.25;10.20;;;;;;;5.58;81.24;98354.09;4938951;29;20052;-80
2021/12/16 04:08:00;;;;;;;18.80;11.10;;;;;;;5.58;81.11;98360.09;4939127;29;20498;-80
2021/12/16 04:10:37;;;;;;;17.30;10.95;;;;;;;5.60;81.81;98362.59;4939165;29;20074;-80
2021/12/16 04:13:07;;;;;;;15.75;10.55;;;;;;;5.61;81.41;98366.81;4939337;29;20051;-80
2021/12/16 04:15:37;;;;;;;17.45;10.30;;;;;;;5.57;81.67;98367.97;4939218;29;20425;-80
2021/12/16 04:18:05;;;;;;;15.80;10.23;;;;;;;5.55;81.63;98367.25;4939006;29;20051;-80
2021/12/16 04:20:33;;;;;;;20.83;11.32;;;;;;;5.56;81.73;98374.09;4938561;29;20433;-79
2021/12/16 04:23:08;;;;;;;17.73;10.50;;;;;;;5.57;82.29;98375.72;4938416;29;20044;-80
2021/12/16 04:25:51;;;;;;;16.33;9.90;;;;;;;5.60;82.03;98378.13;4938510;29;20103;-80
2021/12/16 04:28:26;;;;;;;15.23;9.05;;;;;;;5.58;81.84;98374.81;4938918;29;20111;-80
2021/12/16 04:30:56;;;;;;;16.08;10.32;;;;;;;5.57;81.72;98383.50;4941105;29;20479;-80
2021/12/16 04:33:28;;;;;;;17.73;10.88;;;;;;;5.57;82.05;98376.56;4950477;29;20059;-81
2021/12/16 04:35:58;;;;;;;19.42;10.95;;;;;;;5.60;81.94;98383.31;4961922;28;20087;-80
2021/12/16 04:38:30;;;;;;;16.85;10.38;;;;;;;5.62;82.08;98380.59;4961394;29;20048;-80
2021/12/16 04:41:08;;;;;;;17.27;10.02;;;;;;;5.59;80.93;98381.63;4952616;29;20115;-80
2021/12/16 04:43:40;;;;;;;15.07;9.88;;;;;;;5.57;81.10;98386.09;5007058;23;20049;-80
2021/12/16 04:46:10;;;;;;;16.15;10.90;;;;;;;5.56;81.96;98387.84;4975873;28;20051;-81
2021/12/16 04:48:41;;;;;;;15.48;10.05;;;;;;;5.58;81.77;98392.94;4976169;28;20046;-80
2021/12/16 04:51:10;;;;;;;18.20;10.07;;;;;;;5.57;81.64;98386.94;4976900;28;20055;-80
2021/12/16 04:53:40;;;;;;;15.85;9.93;;;;;;;5.57;81.64;98373.13;4976649;28;20061;-81
2021/12/16 04:56:12;;;;;;;18.17;10.85;;;;;;;5.60;82.12;98377.28;4975472;28;20433;-80
2021/12/16 04:58:45;;;;;;;14.02;10.25;;;;;;;5.61;81.72;98376.34;4976272;28;20498;-80
2021/12/16 05:01:14;;;;;;;15.85;10.05;;;;;;;5.62;81.63;98381.44;4976246;28;20476;-80
2021/12/16 05:03:43;;;;;;;13.20;8.50;;;;;;;5.62;81.67;98378.00;4976181;28;20137;-81
2021/12/16 05:06:12;;;;;;;16.23;10.48;;;;;;;5.62;81.89;98384.03;4976218;28;20477;-81
2021/12/16 05:08:41;;;;;;;15.40;9.50;;;;;;;5.62;81.80;98384.03;4976388;28;20050;-80
2021/12/16 05:11:14;;;;;;;15.23;10.07;;;;;;;5.61;81.73;98379.75;4976077;28;20050;-80
2021/12/16 05:13:43;;;;;;;17.13;10.18;;;;;;;5.57;80.61;98373.13;4975991;28;20082;-81
2021/12/16 05:16:12;;;;;;;16.20;10.45;;;;;;;5.50;80.59;98382.28;4976084;28;20057;-80
2021/12/16 05:18:41;;;;;;;16.48;10.07;;;;;;;5.47;79.98;98382.50;4975773;28;20481;-81
2021/12/16 05:21:15;;;;;;;18.80;12.02;;;;;;;5.40;79.17;98386.41;4975718;28;20142;-80
2021/12/16 05:26:30;;;;;;;17.88;10.27;;;;;;;5.35;79.44;98387.56;4975480;28;20416;-81
2021/12/16 05:28:59;;;;;;;15.10;9.93;;;;;;;5.36;80.07;98384.06;4975782;28;20049;-81
2021/12/16 05:31:29;;;;;;;17.63;11.18;;;;;;;5.39;81.15;98384.78;4976635;28;20119;-80
2021/12/16 05:33:58;;;;;;;16.98;10.43;;;;;;;5.42;81.52;98382.78;4975831;28;20061;-80
2021/12/16 05:36:27;;;;;;;15.43;9.90;;;;;;;5.46;81.81;98393.75;4975700;28;20058;-80
2021/12/16 05:38:55;;;;;;;15.85;9.98;;;;;;;5.46;80.68;98396.34;4974815;28;20055;-80
2021/12/16 05:41:24;;;;;;;16.23;10.60;;;;;;;5.44;79.87;98408.56;4974918;28;20043;-81
2021/12/16 05:43:54;;;;;;;15.60;9.93;;;;;;;5.44;81.35;98409.38;4975199;28;20489;-80
2021/12/16 05:46:24;;;;;;;15.68;10.07;;;;;;;5.43;80.57;98406.94;4975308;28;20051;-80
2021/12/16 05:48:55;;;;;;;14.38;9.85;;;;;;;5.44;80.78;98413.75;4975817;28;20057;-79
2021/12/16 05:51:25;;;;;;;17.27;10.57;;;;;;;5.45;80.38;98416.25;4976070;28;20063;-80
2021/12/16 05:53:54;;;;;;;17.88;10.43;;;;;;;5.41;79.40;98409.59;4975808;28;20047;-80
2021/12/16 05:56:22;;;;;;;17.77;9.95;;;;;;;5.40;80.60;98414.88;4975051;28;20055;-80
2021/12/16 05:58:50;;;;;;;24.92;15.50;;;;;;;5.43;81.13;98422.47;4975344;28;20050;-80
2021/12/16 06:01:23;;;;;;;21.25;12.65;;;;;;;5.48;82.19;98425.56;4975036;28;20051;-80
2021/12/16 06:03:53;;;;;;;20.80;11.65;;;;;;;5.51;81.91;98415.81;4976070;28;20058;-79
2021/12/16 06:06:22;;;;;;;15.25;10.02;;;;;;;5.54;81.53;98414.78;4991545;28;20078;-81
2021/12/16 06:08:52;;;;;;;18.35;10.43;;;;;;;5.50;80.00;98423.69;4986689;28;20059;-81
2021/12/16 06:11:25;;;;;;;15.57;10.15;;;;;;;5.44;79.44;98419.75;4985897;28;20054;-81
2021/12/16 06:14:09;;;;;;;15.02;10.30;;;;;;;5.41;79.82;98413.97;4983346;28;20501;-81
2021/12/16 06:22:37;;;;;;;16.13;10.32;;;;;;;5.24;78.44;98433.22;4983314;28;20047;-81
2021/12/16 06:27:54;;;;;;;15.05;9.23;;;;;;;5.22;79.96;98435.06;4986529;28;20440;-81
2021/12/16 06:30:27;;;;;;;16.38;9.50;;;;;;;5.26;80.57;98437.34;4989102;28;20523;-82
2021/12/16 06:32:56;;;;;;;14.77;9.35;;;;;;;5.29;79.65;98447.50;4988793;28;20058;-81
2021/12/16 06:35:24;;;;;;;16.50;11.05;;;;;;;5.35;80.80;98447.06;4982378;28;20051;-81
2021/12/16 06:37:52;;;;;;;18.60;11.10;;;;;;;5.40;81.33;98433.00;4985561;28;20057;-82
2021/12/16 06:40:24;;;;;;;20.10;11.82;;;;;;;5.46;82.17;98442.94;4991298;28;20062;-82
2021/12/16 06:42:55;;;;;;;16.03;11.10;;;;;;;5.52;82.19;98437.34;4990261;28;20051;-82
2021/12/16 06:45:31;;;;;;;18.77;11.10;;;;;;;5.55;81.64;98434.53;4987756;28;20050;-76
2021/12/16 06:48:04;;;;;;;15.32;9.75;;;;;;;5.56;81.63;98438.81;4973295;28;20050;-75
2021/12/16 06:50:41;;;;;;;19.20;12.07;;;;;;;5.56;82.10;98437.03;4973349;28;20505;-75
2021/12/16 06:53:11;;;;;;;22.00;11.57;;;;;;;5.55;81.52;98443.16;4973283;28;20051;-75
2021/12/16 06:55:45;;;;;;;17.63;10.75;;;;;;;5.55;82.06;98437.13;4972807;28;20066;-75
2021/12/16 06:58:20;;;;;;;16.90;11.05;;;;;;;5.54;82.26;98441.50;4973210;28;20054;-75
2021/12/16 07:00:51;;;;;;;17.10;10.32;;;;;;;5.55;82.43;98435.41;4973389;28;20066;-75
2021/12/16 07:03:22;;;;;;;17.48;10.30;;;;;;;5.54;81.08;98445.84;4971673;28;20113;-75
2021/12/16 07:05:53;;;;;;;15.77;10.52;;;;;;;5.50;80.75;98454.75;4973115;28;20512;-75
2021/12/16 07:08:23;;;;;;;17.75;10.38;;;;;;;5.49;81.91;98453.94;4972994;28;20086;-75
2021/12/16 07:10:54;;;;;;;18.60;11.73;;;;;;;5.49;81.68;98458.28;4973739;28;20054;-76
2021/12/16 07:13:30;;;;;;;16.35;9.90;;;;;;;5.49;82.22;98455.69;4969153;28;20050;-76
2021/12/16 07:15:59;;;;;;;19.38;10.60;;;;;;;5.50;82.41;98465.09;4969309;28;20043;-76
2021/12/16 07:18:27;;;;;;;15.55;9.85;;;;;;;5.48;81.34;98478.13;4973960;28;20057;-76
2021/12/16 07:20:55;;;;;;;17.13;11.05;;;;;;;5.51;81.72;98477.09;4976823;28;20047;-76
2021/12/16 07:23:23;;;;;;;21.67;12.68;;;;;;;5.51;81.93;98472.78;4980432;28;20057;-75
2021/12/16 07:25:50;;;;;;;20.83;11.60;;;;;;;5.52;81.60;98473.59;4998760;28;20054;-76
2021/12/16 07:28:18;;;;;;;18.88;12.13;;;;;;;5.51;81.61;98482.28;4999376;28;20062;-75
2021/12/16 07:30:47;;;;;;;19.02;11.77;;;;;;;5.49;80.70;98481.56;4982043;28;20055;-76
2021/12/16 07:33:16;;;;;;;19.58;11.38;;;;;;;5.44;80.66;98486.22;4994977;28;20102;-75
2021/12/16 07:35:47;;;;;;;17.10;10.95;;;;;;;5.42;81.26;98494.06;4998743;28;20034;-76
2021/12/16 07:38:16;;;;;;;19.13;10.68;;;;;;;5.43;82.17;98497.50;4998161;28;20038;-76
2021/12/16 07:40:46;;;;;;;20.17;11.50;;;;;;;5.47;82.08;98498.97;4995929;28;20065;-76
2021/12/16 07:45:59;;;;;;;22.40;13.20;;;;;;;5.34;79.62;98494.59;4976500;28;20066;-76
2021/12/16 07:48:27;;;;;;;17.25;10.93;;;;;;;5.30;80.44;98495.72;4976752;28;20047;-76
2021/12/16 07:50:59;;;;;;;19.23;11.55;;;;;;;5.31;80.88;98507.75;4976331;28;20054;-75
2021/12/16 07:53:27;;;;;;;20.23;12.20;;;;;;;5.32;81.54;98496.47;4976480;28;20421;-76
2021/12/16 07:55:55;;;;;;;18.95;11.55;;;;;;;5.36;81.95;98495.34;4976025;28;20051;-76
2021/12/16 07:58:23;;;;;;;18.15;11.15;;;;;;;5.37;81.01;98496.97;4997921;28;20047;-76
2021/12/16 08:00:53;;;;;;;17.95;11.25;;;;;;;5.34;79.88;98497.19;4996563;28;20057;-76
2021/12/16 08:03:21;;;;;;;20.80;11.43;;;;;;;5.32;80.23;98501.63;4996120;28;20066;-76
2021/12/16 08:05:54;;;;;;;18.35;12.27;;;;;;;5.33;80.98;98508.44;4977394;28;20050;-75
2021/12/16 08:08:23;;;;;;;20.48;12.98;;;;;;;5.37;81.49;98507.31;4975933;28;20057;-75
2021/12/16 08:10:53;;;;;;;20.77;12.75;;;;;;;5.39;81.60;98504.66;4976268;28;20132;-75
2021/12/16 08:13:21;;;;;;;17.60;11.63;;;;;;;5.39;80.96;98514.19;4976126;28;20054;-76
2021/12/16 08:15:49;;;;;;;20.33;12.10;;;;;;;5.37;81.46;98516.84;4975322;28;20533;-75
2021/12/16 08:18:17;;;;;;;18.27;11.82;;;;;;;5.40;81.46;98521.00;4976180;28;20050;-76
2021/12/16 08:20:44;;;;;;;19.63;12.30;;;;;;;5.42;81.71;98529.47;4977088;28;20488;-76
2021/12/16 08:23:12;;;;;;;18.23;11.55;;;;;;;5.42;81.40;98532.06;4976043;28;20050;-76
2021/12/16 08:25:41;;;;;;;18.95;12.30;;;;;;;5.43;81.66;98546.69;4975834;28;20054;-76
2021/12/16 08:28:10;;;;;;;19.15;12.27;;;;;;;5.42;81.82;98542.44;4975438;28;20046;-76
2021/12/16 08:30:40;;;;;;;20.33;12.90;;;;;;;5.43;81.90;98544.91;4975980;28;20051;-76
2021/12/16 08:33:11;;;;;;;18.73;12.35;;;;;;;5.43;81.10;98542.34;4975815;28;20066;-76
2021/12/16 08:35:41;;;;;;;17.80;11.70;;;;;;;5.42;81.46;98539.84;4975288;28;20082;-76
2021/12/16 08:38:09;;;;;;;18.90;11.82;;;;;;;5.44;81.59;98548.34;4975686;28;20504;-76
2021/12/16 08:40:39;;;;;;;19.90;12.50;;;;;;;5.43;80.71;98547.50;4975258;28;20051;-76
2021/12/16 08:43:08;;;;;;;18.63;12.45;;;;;;;5.40;80.58;98554.63;4975499;28;20047;-76
2021/12/16 08:45:37;;;;;;;20.13;11.73;;;;;;;5.35;80.90;98553.19;4975550;28;20062;-76
2021/12/16 08:48:06;;;;;;;19.95;12.68;;;;;;;5.38;81.52;98549.59;4974988;28;20062;-75
2021/12/16 08:50:36;;;;;;;26.02;14.13;;;;;;;5.43;81.91;98554.44;4975482;28;20051;-76
2021/12/16 08:53:06;;;;;;;21.52;13.52;;;;;;;5.47;82.07;98551.56;4975193;28;20058;-76
2021/12/16 08:55:35;;;;;;;19.92;12.48;;;;;;;5.49;81.31;98552.28;4974976;28;20047;-76
2021/12/16 08:58:05;;;;;;;17.52;11.05;;;;;;;5.48;81.71;98558.38;4974911;28;20051;-75
2021/12/16 09:00:37;;;;;;;18.25;12.00;;;;;;;5.49;81.41;98561.81;4974175;28;20509;-76
2021/12/16 09:03:06;;;;;;;17.60;11.23;;;;;;;5.48;80.89;98570.50;4973544;28;20074;-76
2021/12/16 09:05:33;;;;;;;19.13;12.27;;;;;;;5.45;80.91;98562.94;4974403;28;20055;-76
2021/12/16 09:08:01;;;;;;;17.40;11.38;;;;;;;5.46;81.22;98560.22;4974596;28;20057;-75
2021/12/16 09:10:33;;;;;;;19.30;12.30;;;;;;;5.46;80.15;98564.59;4975052;28;20433;-76
2021/12/16 09:13:03;;;;;;;18.48;11.75;;;;;;;5.46;80.94;98562.00;4974706;28;20062;-76
2021/12/16 09:15:33;;;;;;;18.17;11.73;;;;;;;5.49;81.49;98569.59;4974983;28;20050;-75
2021/12/16 09:18:03;;;;;;;17.38;11.80;;;;;;;5.54;81.66;98580.44;4974722;28;20047;-75
2021/12/16 09:20:32;;;;;;;21.73;13.48;;;;;;;5.52;80.34;98584.91;4975128;28;20051;-78
2021/12/16 09:23:00;;;;;;;19.83;13.10;;;;;;;5.49;80.65;98590.28;4974758;28;20055;-78
2021/12/16 09:25:29;;;;;;;18.23;12.23;;;;;;;5.51;80.96;98588.41;4974821;28;20420;-76
2021/12/16 09:27:57;;;;;;;18.45;11.93;;;;;;;5.53;81.55;98583.97;4974647;28;20515;-76
2021/12/16 09:30:27;;;;;;;21.13;13.27;;;;;;;5.56;81.18;98591.53;4975587;28;20065;-77
2021/12/16 09:32:59;;;;;;;23.48;12.80;;;;;;;5.57;81.56;98593.19;4995563;28;20539;-77
2021/12/16 09:35:31;;;;;;;19.20;12.30;;;;;;;5.56;80.71;98594.13;4994423;28;20106;-77
2021/12/16 09:37:59;;;;;;;20.17;12.52;;;;;;;5.56;81.09;98586.38;4993830;28;20051;-78
2021/12/16 09:40:29;;;;;;;19.92;12.70;;;;;;;5.62;81.99;98600.66;4993269;28;20037;-77
2021/12/16 09:42:58;;;;;;;24.05;13.32;;;;;;;5.61;79.89;98599.81;4992593;28;20055;-77
2021/12/16 09:45:45;;;;;;;21.77;12.65;;;;;;;5.59;80.58;98596.50;4992879;28;20047;-75
2021/12/16 09:48:13;;;;;;;21.52;12.95;;;;;;;5.62;81.06;98600.66;4990806;28;20059;-76
2021/12/16 09:50:42;;;;;;;17.48;11.73;;;;;;;5.64;81.28;98602.22;4974663;28;20050;-77
2021/12/16 09:53:10;;;;;;;19.70;12.60;;;;;;;5.64;80.45;98602.22;4974141;28;20061;-77
2021/12/16 09:55:39;;;;;;;19.63;13.75;;;;;;;5.62;80.03;98593.72;4974458;28;20489;-77
2021/12/16 09:58:06;;;;;;;19.27;12.27;;;;;;;5.64;80.88;98596.19;4974745;28;20496;-78
2021/12/16 10:00:34;;;;;;;20.75;13.00;;;;;;;5.66;80.25;98594.34;4974931;28;20058;-77
2021/12/16 10:03:04;;;;;;;22.52;12.82;;;;;;;5.61;78.78;98594.66;4974690;28;20100;-77
2021/12/16 10:05:34;;;;;;;22.42;14.43;;;;;;;5.57;79.31;98588.00;4974460;28;20428;-77
2021/12/16 10:08:05;;;;;;;22.23;14.23;;;;;;;5.54;79.70;98588.22;4975009;28;20473;-77
2021/12/16 10:10:33;;;;;;;23.92;14.23;;;;;;;5.57;80.61;98582.81;4980353;28;20042;-77
2021/12/16 10:13:02;;;;;;;22.05;13.70;;;;;;;5.58;79.88;98579.31;4992865;28;20054;-78
2021/12/16 10:18:21;;;;;;;22.83;14.30;;;;;;;5.58;78.94;98587.09;4992472;28;20062;-77
2021/12/16 10:20:54;;;;;;;24.55;14.88;;;;;;;5.62;80.67;98588.56;4992512;28;20047;-78
2021/12/16 10:23:26;;;;;;;23.45;15.23;;;;;;;5.65;80.33;98588.34;4989329;28;20050;-77
2021/12/16 10:25:57;;;;;;;25.15;14.82;;;;;;;5.68;79.87;98588.13;4974332;28;20055;-77
2021/12/16 10:28:27;;;;;;;21.42;14.00;;;;;;;5.68;80.51;98588.13;4974356;28;20417;-77
2021/12/16 10:31:02;;;;;;;23.45;15.38;;;;;;;5.67;79.15;98591.66;4974220;28;20055;-77
2021/12/16 10:33:34;;;;;;;24.02;14.75;;;;;;;5.63;78.64;98579.84;4974994;28;20062;-77
2021/12/16 10:36:07;;;;;;;27.00;16.10;;;;;;;5.67;78.62;98585.66;4973548;28;20058;-78
2021/12/16 10:38:38;;;;;;;21.40;14.50;;;;;;;5.73;80.15;98580.06;4974093;28;20050;-79
2021/12/16 10:41:08;;;;;;;31.00;16.92;;;;;;;5.80;80.66;98581.31;4974529;28;20055;-77
2021/12/16 10:43:40;;;;;;;22.10;14.20;;;;;;;5.84;80.87;98577.59;4973791;28;20055;-77
2021/12/16 10:46:10;;;;;;;22.08;13.60;;;;;;;5.86;80.67;98577.47;4993599;23;20050;-79
2021/12/16 10:48:42;;;;;;;22.48;14.00;;;;;;;5.85;79.42;98578.41;4953706;29;20059;-77
2021/12/16 10:51:23;;;;;;;24.48;13.93;;;;;;;5.85;79.99;98578.41;4954321;29;20058;-78
2021/12/16 10:54:03;;;;;;;30.55;16.10;;;;;;;5.81;77.73;98564.00;4955798;28;20055;-77
2021/12/16 10:56:34;;;;;;;39.60;17.00;;;;;;;5.73;77.56;98560.19;4957753;29;20077;-78
2021/12/16 10:59:07;;;;;;;25.42;14.52;;;;;;;5.68;77.50;98567.41;4959428;29;20501;-78
2021/12/16 11:01:46;;;;;;;30.27;15.35;;;;;;;5.63;77.01;98564.31;4959439;29;20054;-77
2021/12/16 11:04:18;;;;;;;30.77;15.52;;;;;;;5.61;77.51;98566.16;4957944;29;20055;-77
2021/12/16 11:06:49;;;;;;;24.30;13.82;;;;;;;5.62;77.22;98565.25;4957681;29;20055;-78
2021/12/16 11:09:46;;;;;;;35.28;15.43;;;;;;;5.62;77.21;98575.59;4957877;29;20059;-78
2021/12/16 11:12:25;;;;;;;22.70;13.35;;;;;;;5.67;78.87;98583.06;4945498;29;20059;-77
2021/12/16 11:14:54;;;;;;;26.15;15.20;;;;;;;5.72;78.79;98584.41;4957754;29;20051;-77
2021/12/16 11:17:25;;;;;;;27.60;13.82;;;;;;;5.77;79.65;98577.16;4957085;29;20051;-77
2021/12/16 11:19:57;;;;;;;25.35;15.23;;;;;;;5.86;80.58;98574.88;4957433;29;20501;-78
2021/12/16 11:22:30;;;;;;;24.05;14.38;;;;;;;5.92;80.47;98574.47;4957862;29;20054;-77
2021/12/16 11:25:10;;;;;;;;;;;;;;;5.98;80.27;98576.69;4958955;29;20055;-79
2021/12/16 11:27:37;;;;;;;26.17;15.00;;;;;;;5.94;78.66;98581.22;4957597;29;19922;-78
2021/12/16 11:30:38;;;;;;;23.13;14.07;;;;;;;5.95;79.51;98574.31;4958441;29;20051;-78
2021/12/16 11:33:16;;;;;;;23.83;15.32;;;;;;;5.99;80.29;98575.72;4898624;29;20093;-78
2021/12/16 11:35:48;;;;;;;23.15;14.23;;;;;;;6.05;80.35;98575.31;4949405;28;20051;-78
2021/12/16 11:38:29;;;;;;;27.75;16.15;;;;;;;6.10;80.82;98573.25;4956927;29;20047;-79
2021/12/16 11:41:05;;;;;;;26.95;16.23;;;;;;;6.14;80.33;98560.91;4958553;29;20074;-78
2021/12/16 11:43:47;;;;;;;23.48;15.45;;;;;;;6.13;77.77;98572.22;4961306;28;20425;-78
2021/12/16 11:46:21;;;;;;;23.08;15.48;;;;;;;6.11;79.36;98563.72;4956593;29;20054;-77
2021/12/16 11:49:15;;;;;;;22.85;14.82;;;;;;;6.13;78.36;98562.69;4953779;29;20118;-80
2021/12/16 11:51:45;;;;;;;21.50;14.32;;;;;;;6.17;79.38;98569.31;4957296;29;20545;-78
2021/12/16 11:54:22;;;;;;;22.25;13.82;;;;;;;6.21;78.70;98569.09;4957350;29;20102;-78
2021/12/16 11:56:57;;;;;;;18.35;12.00;;;;;;;6.19;76.86;98574.41;4956428;29;20054;-77
2021/12/16 11:59:30;;;;;;;19.60;12.70;;;;;;;6.16;77.73;98578.00;4957123;29;20394;-78
2021/12/16 12:01:59;;;;;;;18.60;12.52;;;;;;;6.18;78.53;98575.31;4956917;29;20047;-79
2021/12/16 12:04:30;;;;;;;20.15;12.63;;;;;;;6.22;78.71;98570.75;4956518;28;20574;-78
2021/12/16 12:06:58;;;;;;;18.13;12.15;;;;;;;6.18;77.43;98578.72;4956332;29;20047;-77
2021/12/16 12:09:38;;;;;;;19.77;13.20;;;;;;;6.14;76.16;98566.94;4956520;29;20048;-78
2021/12/16 12:12:09;;;;;;;16.75;11.73;;;;;;;6.11;77.15;98574.91;4956919;29;20513;-78
2021/12/16 12:14:38;;;;;;;16.48;11.02;;;;;;;6.15;78.38;98572.94;4956930;29;20047;-77
2021/12/16 12:17:10;;;;;;;15.23;9.73;;;;;;;6.19;77.07;98566.63;4955982;29;20051;-77
2021/12/16 12:19:44;;;;;;;14.57;10.05;;;;;;;6.19;78.01;98561.44;4956679;29;20055;-77
2021/12/16 12:22:12;;;;;;;24.95;12.13;;;;;;;6.25;78.83;98554.97;4954612;28;20054;-76
2021/12/16 12:24:44;;;;;;;18.85;10.20;;;;;;;6.29;79.16;98552.06;4956334;29;20054;-76
2021/12/16 12:27:18;;;;;;;13.13;8.88;;;;;;;6.35;79.67;98551.66;4937496;29;20048;-79
2021/12/16 12:29:48;;;;;;;17.92;9.80;;;;;;;6.39;79.34;98557.47;4942980;29;20163;-79
2021/12/16 12:32:19;;;;;;;18.60;9.63;;;;;;;6.42;78.87;98557.22;4958115;29;20413;-79
2021/12/16 12:34:51;;;;;;;26.70;11.02;;;;;;;6.44;79.15;98555.34;4958871;29;20055;-80
2021/12/16 12:37:20;;;;;;;24.17;10.63;;;;;;;6.47;79.36;98552.56;4959334;29;20074;-77
2021/12/16 12:39:51;;;;;;;13.95;10.02;;;;;;;6.52;79.26;98544.47;4961608;29;20066;-79
2021/12/16 12:42:21;;;;;;;20.13;10.45;;;;;;;6.54;77.34;98543.41;4959377;29;20138;-80
2021/12/16 12:44:49;;;;;;;23.50;11.88;;;;;;;6.53;77.94;98544.34;4958976;29;20058;-79
2021/12/16 12:47:19;;;;;;;22.20;11.32;;;;;;;6.60;78.58;98540.41;4957732;29;20063;-80
2021/12/16 12:49:47;;;;;;;16.40;9.73;;;;;;;6.65;78.23;98536.63;4958759;29;20050;-80
2021/12/16 12:52:17;;;;;;;22.42;10.15;;;;;;;6.69;78.06;98532.88;4957269;29;20062;-80
2021/12/16 12:54:48;;;;;;;19.50;10.07;;;;;;;6.73;78.23;98544.69;4957492;29;20509;-80
2021/12/16 12:57:24;;;;;;;13.52;8.85;;;;;;;6.77;77.96;98546.94;4957418;29;20082;-79
2021/12/16 12:59:53;;;;;;;12.80;9.15;;;;;;;6.80;77.33;98540.75;4959778;29;20062;-81
2021/12/16 13:02:25;;;;;;;15.73;9.32;;;;;;;6.82;76.37;98549.22;4959708;29;20421;-80
2021/12/16 13:04:55;;;;;;;13.65;9.68;;;;;;;6.85;76.71;98545.59;4959371;29;20501;-80
2021/12/16 13:07:33;;;;;;;19.90;9.23;;;;;;;6.84;74.33;98547.34;4955236;29;20046;-80
2021/12/16 13:10:08;;;;;;;13.05;8.70;;;;;;;6.85;77.01;98543.81;4949026;29;20059;-81
2021/12/16 13:12:39;;;;;;;13.60;8.15;;;;;;;6.92;77.78;98547.63;4955669;29;20051;-81
2021/12/16 13:15:35;;;;;;;19.40;9.15;;;;;;;6.98;78.17;98549.78;4954377;28;20479;-80
2021/12/16 13:24:02;;;;;;;27.58;9.43;;;;;;;7.18;77.78;98544.91;4955665;29;20056;-82
2021/12/16 13:26:37;;;;;;;11.98;7.80;;;;;;;7.26;75.42;98542.59;4955346;29;20051;-81
2021/12/16 13:29:21;;;;;;;15.45;7.50;;;;;;;7.32;76.67;98542.09;4955846;29;20047;-80
2021/12/16 13:32:06;;;;;;;14.23;8.30;;;;;;;7.35;74.76;98541.91;4957822;29;20497;-81
2021/12/16 13:34:37;;;;;;;10.57;7.68;;;;;;;7.35;73.71;98552.28;4958012;29;20537;-81
2021/12/16 13:37:08;;;;;;;14.00;9.73;;;;;;;7.27;72.13;98554.59;4957176;29;20047;-78
2021/12/16 13:39:43;;;;;;;9.95;7.65;;;;;;;7.22;74.08;98554.13;4958266;29;20427;-79
2021/12/16 13:42:15;;;;;;;12.35;8.73;;;;;;;7.21;74.59;98557.66;4958116;29;20055;-78
2021/12/16 13:44:55;;;;;;;11.27;8.80;;;;;;;7.22;75.36;98546.34;4958478;29;20047;-80
2021/12/16 13:47:38;;;;;;;14.80;9.63;;;;;;;7.19;74.05;98551.75;4963941;29;20035;-79
2021/12/16 14:00:00;;;;;;;12.30;8.32;;;;;;;7.10;76.43;98562.81;4958209;29;20459;-80
2021/12/16 14:02:24;;;;;;;15.50;9.75;;;;;;;7.08;77.47;98560.31;4957409;29;20051;-78
2021/12/16 14:05:03;;;;;;;12.98;9.65;;;;;;;6.96;77.45;98562.03;4956211;29;20047;-79
2021/12/16 14:07:56;;;;;;;14.25;10.35;;;;;;;6.87;78.50;98562.69;4954905;29;20051;-81
2021/12/16 14:10:47;;;;;;;15.45;11.45;;;;;;;6.85;76.84;98569.75;4954235;29;20051;-81
2021/12/16 14:16:31;;;;;;;14.00;9.95;;;;;;;6.75;74.75;98573.94;4954612;29;20051;-80
2021/12/16 14:25:08;;;;;;;14.53;10.50;;;;;;;6.86;77.48;98593.94;4956925;29;20063;-81
2021/12/16 14:42:06;;;;;;;14.32;10.00;;;;;;;6.96;77.62;98595.75;4954162;29;20054;-81
2021/12/16 14:50:07;;;;;;;14.00;9.63;;;;;;;6.84;75.76;98599.22;4922334;29;20146;-80
2021/12/16 14:52:36;;;;;;;12.75;9.65;;;;;;;6.80;76.57;98605.59;4954317;29;20066;-80
2021/12/16 14:55:08;;;;;;;14.63;9.30;;;;;;;6.77;75.20;98613.56;4954681;29;20150;-80
2021/12/16 14:57:39;;;;;;;13.55;9.40;;;;;;;6.74;76.34;98606.84;4955124;29;20047;-81
2021/12/16 15:00:13;;;;;;;15.27;9.77;;;;;;;6.78;77.59;98589.31;4955125;29;20059;-80
2021/12/16 15:02:43;;;;;;;16.20;10.77;;;;;;;6.80;77.88;98585.66;4955885;29;20059;-76
2021/12/16 15:05:27;;;;;;;14.30;9.85;;;;;;;6.80;75.69;98588.25;4955557;29;20047;-76
2021/12/16 15:08:03;;;;;;;13.52;9.90;;;;;;;6.75;75.36;98592.09;4955057;29;20054;-76
2021/12/16 15:10:31;;;;;;;15.30;10.23;;;;;;;6.74;77.19;98600.81;4955678;29;20051;-76
2021/12/16 15:13:09;;;;;;;15.25;10.68;;;;;;;6.71;76.54;98603.63;4958191;29;20051;-75
2021/12/16 15:15:46;;;;;;;15.30;10.15;;;;;;;6.67;77.01;98608.22;4961044;29;20055;-77
2021/12/16 15:40:41;;;;;;;23.88;13.43;;;;;;;6.33;75.21;98640.81;4957767;28;20051;-79
2021/12/16 15:43:13;;;;;;;20.17;12.10;;;;;;;6.30;75.16;98635.84;4958171;28;20055;-79
2021/12/16 15:45:45;;;;;;;18.05;12.07;;;;;;;6.28;76.53;98637.72;4958331;28;20055;-78
2021/12/16 15:48:15;;;;;;;19.48;12.20;;;;;;;6.28;77.13;98633.38;4958906;28;20051;-78
2021/12/16 15:50:46;;;;;;;19.33;13.27;;;;;;;6.33;77.26;98625.28;4961875;28;20051;-78
2021/12/16 15:53:20;;;;;;;17.58;12.10;;;;;;;6.37;78.38;98624.13;4960606;28;20047;-78
2021/12/16 15:55:52;;;;;;;18.05;13.07;;;;;;;6.39;78.21;98617.09;4957702;28;20074;-80
2021/12/16 15:58:23;;;;;;;46.00;13.75;;;;;;;6.41;78.55;98623.00;4959644;29;20047;-80
2021/12/16 16:00:53;;;;;;;32.25;14.32;;;;;;;6.40;78.71;98621.31;4959558;29;20391;-78